KINL/INL METAR and TAF weather

Enter ICAO airport designator
Station Type Date Time Source
KINL METAR 2022/01/25 05:54 UTC NOAA

KINL 250554Z AUTO 28005KT 10SM CLR M28/M30 A3009 RMK AO2 SLP233 T12781300 11228 21278 411781322 53017


Station Type Date Time Source
KINL Decoded METAR 2022/01/25 05:54 UTC NOAA

FALLS INTERNATIONAL AIRPORT , MN, United States (KINL) 48-34N 093-24W 360M
Jan 25, 2022 - 12:54 AM EST / 2022.01.25 0554 UTC
Wind: from the W (280 degrees) at 6 MPH (5 KT):0
Visibility: 10 mile(s):0
Sky conditions: clear
Temperature: -18.0 F (-27.8 C)
Windchill: -32 F (-36 C):2
Dew Point: -22.0 F (-30.0 C)
Relative Humidity: 81%
Pressure (altimeter): 30.09 in. Hg (1018 hPa)
Pressure tendency: 0.05 inches (1.7 hPa) higher than three hours ago
ob: KINL 250554Z AUTO 28005KT 10SM CLR M28/M30 A3009 RMK AO2 SLP233 T12781300 11228 21278 411781322 53017
cycle: 6

Station Type Date Time Source
KINL TAF 2022/01/25 06:22 UTC NOAA

TAF KINL 250520Z 2506/2606 30006KT P6SM FEW250
FM260000 27005KT P6SM FEW250

Example: see airport list